sensor_id;sensor_type;location;lat;lon;timestamp;temperature;humidity
35445;DHT22;21562;49.476;6.086;2024-02-21T00:00:20;10.70;99.90
35445;DHT22;21562;49.476;6.086;2024-02-21T00:02:46;10.80;99.90
35445;DHT22;21562;49.476;6.086;2024-02-21T00:05:12;11.00;99.90
35445;DHT22;21562;49.476;6.086;2024-02-21T00:07:37;11.00;61.00
35445;DHT22;21562;49.476;6.086;2024-02-21T00:10:03;10.70;99.90
35445;DHT22;21562;49.476;6.086;2024-02-21T00:12:29;10.90;97.10
35445;DHT22;21562;49.476;6.086;2024-02-21T00:14:55;10.90;92.60
35445;DHT22;21562;49.476;6.086;2024-02-21T00:17:20;11.00;89.70
35445;DHT22;21562;49.476;6.086;2024-02-21T00:19:46;11.00;72.80
35445;DHT22;21562;49.476;6.086;2024-02-21T00:22:12;11.10;65.90
35445;DHT22;21562;49.476;6.086;2024-02-21T00:24:37;11.20;56.30
35445;DHT22;21562;49.476;6.086;2024-02-21T00:27:03;11.20;57.40
35445;DHT22;21562;49.476;6.086;2024-02-21T00:29:29;11.20;54.10
35445;DHT22;21562;49.476;6.086;2024-02-21T00:31:55;11.30;50.20
35445;DHT22;21562;49.476;6.086;2024-02-21T00:34:20;11.10;49.00
35445;DHT22;21562;49.476;6.086;2024-02-21T00:36:46;11.00;73.20
35445;DHT22;21562;49.476;6.086;2024-02-21T00:39:12;11.10;72.00
35445;DHT22;21562;49.476;6.086;2024-02-21T00:41:37;11.20;59.60
35445;DHT22;21562;49.476;6.086;2024-02-21T00:44:03;11.30;53.50
35445;DHT22;21562;49.476;6.086;2024-02-21T00:46:31;11.30;50.60
35445;DHT22;21562;49.476;6.086;2024-02-21T00:48:56;11.30;48.20
35445;DHT22;21562;49.476;6.086;2024-02-21T00:51:22;11.40;38.80
35445;DHT22;21562;49.476;6.086;2024-02-21T00:53:48;11.20;53.30
35445;DHT22;21562;49.476;6.086;2024-02-21T00:56:13;11.20;55.40
35445;DHT22;21562;49.476;6.086;2024-02-21T00:58:39;11.10;66.20
35445;DHT22;21562;49.476;6.086;2024-02-21T01:01:05;11.10;72.00
35445;DHT22;21562;49.476;6.086;2024-02-21T01:03:30;10.80;94.40
35445;DHT22;21562;49.476;6.086;2024-02-21T01:05:56;10.70;99.90
35445;DHT22;21562;49.476;6.086;2024-02-21T01:08:22;10.50;99.90
35445;DHT22;21562;49.476;6.086;2024-02-21T01:10:47;10.30;99.90
35445;DHT22;21562;49.476;6.086;2024-02-21T01:13:13;10.40;99.90
35445;DHT22;21562;49.476;6.086;2024-02-21T01:15:39;10.40;99.90
35445;DHT22;21562;49.476;6.086;2024-02-21T01:18:05;10.40;99.90
35445;DHT22;21562;49.476;6.086;2024-02-21T01:20:31;9.90;99.90
35445;DHT22;21562;49.476;6.086;2024-02-21T01:22:57;9.10;99.90
35445;DHT22;21562;49.476;6.086;2024-02-21T01:25:23;8.60;99.90
35445;DHT22;21562;49.476;6.086;2024-02-21T01:27:49;8.50;99.90
35445;DHT22;21562;49.476;6.086;2024-02-21T01:30:14;8.70;99.90
35445;DHT22;21562;49.476;6.086;2024-02-21T01:32:40;8.80;99.90
35445;DHT22;21562;49.476;6.086;2024-02-21T01:35:07;8.60;99.90
35445;DHT22;21562;49.476;6.086;2024-02-21T01:37:33;8.60;99.90
35445;DHT22;21562;49.476;6.086;2024-02-21T01:39:58;8.70;99.90
35445;DHT22;21562;49.476;6.086;2024-02-21T01:42:25;9.00;99.90
35445;DHT22;21562;49.476;6.086;2024-02-21T01:44:50;9.20;99.90
35445;DHT22;21562;49.476;6.086;2024-02-21T01:47:18;9.10;99.90
35445;DHT22;21562;49.476;6.086;2024-02-21T01:49:44;9.30;99.90
35445;DHT22;21562;49.476;6.086;2024-02-21T01:52:12;9.60;99.90
35445;DHT22;21562;49.476;6.086;2024-02-21T01:54:39;9.30;99.90
35445;DHT22;21562;49.476;6.086;2024-02-21T01:57:05;9.30;99.90
35445;DHT22;21562;49.476;6.086;2024-02-21T01:59:31;9.20;99.90
35445;DHT22;21562;49.476;6.086;2024-02-21T02:01:57;9.40;99.90
35445;DHT22;21562;49.476;6.086;2024-02-21T02:04:24;9.60;99.90
35445;DHT22;21562;49.476;6.086;2024-02-21T02:06:50;9.40;99.90
35445;DHT22;21562;49.476;6.086;2024-02-21T02:09:16;9.50;99.90
35445;DHT22;21562;49.476;6.086;2024-02-21T02:11:43;9.30;99.90
35445;DHT22;21562;49.476;6.086;2024-02-21T02:14:09;9.50;99.90
35445;DHT22;21562;49.476;6.086;2024-02-21T02:16:34;9.40;99.90
35445;DHT22;21562;49.476;6.086;2024-02-21T02:19:00;9.20;99.90
35445;DHT22;21562;49.476;6.086;2024-02-21T02:21:31;9.00;99.90
35445;DHT22;21562;49.476;6.086;2024-02-21T02:23:59;8.90;99.90
35445;DHT22;21562;49.476;6.086;2024-02-21T02:26:24;8.60;99.90
35445;DHT22;21562;49.476;6.086;2024-02-21T02:28:50;8.70;99.90
35445;DHT22;21562;49.476;6.086;2024-02-21T02:31:16;8.70;99.90
35445;DHT22;21562;49.476;6.086;2024-02-21T02:33:45;9.10;99.90
35445;DHT22;21562;49.476;6.086;2024-02-21T02:36:10;9.60;99.90
35445;DHT22;21562;49.476;6.086;2024-02-21T02:38:37;9.80;99.90
35445;DHT22;21562;49.476;6.086;2024-02-21T02:41:02;9.80;99.90
35445;DHT22;21562;49.476;6.086;2024-02-21T02:43:28;10.00;99.90
35445;DHT22;21562;49.476;6.086;2024-02-21T02:45:54;9.90;99.90
35445;DHT22;21562;49.476;6.086;2024-02-21T02:48:21;10.20;99.90
35445;DHT22;21562;49.476;6.086;2024-02-21T02:50:47;9.90;99.90
35445;DHT22;21562;49.476;6.086;2024-02-21T02:53:12;9.80;99.90
35445;DHT22;21562;49.476;6.086;2024-02-21T02:55:38;9.80;99.90
35445;DHT22;21562;49.476;6.086;2024-02-21T02:58:04;10.00;99.90
35445;DHT22;21562;49.476;6.086;2024-02-21T03:00:30;10.20;99.90
35445;DHT22;21562;49.476;6.086;2024-02-21T03:02:56;10.20;99.90
35445;DHT22;21562;49.476;6.086;2024-02-21T03:05:21;9.70;99.90
35445;DHT22;21562;49.476;6.086;2024-02-21T03:07:48;9.40;99.90
35445;DHT22;21562;49.476;6.086;2024-02-21T03:10:14;9.30;99.90
35445;DHT22;21562;49.476;6.086;2024-02-21T03:12:43;9.40;99.90
35445;DHT22;21562;49.476;6.086;2024-02-21T03:15:09;9.30;99.90
35445;DHT22;21562;49.476;6.086;2024-02-21T03:17:35;9.40;99.90
35445;DHT22;21562;49.476;6.086;2024-02-21T03:20:04;9.60;99.90
35445;DHT22;21562;49.476;6.086;2024-02-21T03:22:31;9.90;99.90
35445;DHT22;21562;49.476;6.086;2024-02-21T03:24:58;10.20;99.90
35445;DHT22;21562;49.476;6.086;2024-02-21T03:27:23;10.50;99.90
35445;DHT22;21562;49.476;6.086;2024-02-21T03:29:49;10.10;99.90
35445;DHT22;21562;49.476;6.086;2024-02-21T03:32:15;10.10;99.90
35445;DHT22;21562;49.476;6.086;2024-02-21T03:34:40;10.20;99.90
35445;DHT22;21562;49.476;6.086;2024-02-21T03:37:06;10.10;99.90
35445;DHT22;21562;49.476;6.086;2024-02-21T03:39:32;10.40;99.90
35445;DHT22;21562;49.476;6.086;2024-02-21T03:41:58;10.50;99.90
35445;DHT22;21562;49.476;6.086;2024-02-21T03:44:26;10.40;99.90
35445;DHT22;21562;49.476;6.086;2024-02-21T03:46:52;10.20;99.90
35445;DHT22;21562;49.476;6.086;2024-02-21T03:49:18;9.90;99.90
35445;DHT22;21562;49.476;6.086;2024-02-21T03:51:44;10.10;99.90
35445;DHT22;21562;49.476;6.086;2024-02-21T03:54:09;10.30;99.90
35445;DHT22;21562;49.476;6.086;2024-02-21T03:56:38;10.20;99.90
35445;DHT22;21562;49.476;6.086;2024-02-21T03:59:06;10.40;99.90
35445;DHT22;21562;49.476;6.086;2024-02-21T04:01:32;10.40;99.90
35445;DHT22;21562;49.476;6.086;2024-02-21T04:03:58;10.40;99.90
35445;DHT22;21562;49.476;6.086;2024-02-21T04:06:23;10.30;99.90
35445;DHT22;21562;49.476;6.086;2024-02-21T04:08:49;10.30;99.90
35445;DHT22;21562;49.476;6.086;2024-02-21T04:11:14;10.20;99.90
35445;DHT22;21562;49.476;6.086;2024-02-21T04:13:40;9.70;99.90
35445;DHT22;21562;49.476;6.086;2024-02-21T04:16:06;9.80;99.90
35445;DHT22;21562;49.476;6.086;2024-02-21T04:18:32;9.80;99.90
35445;DHT22;21562;49.476;6.086;2024-02-21T04:20:58;9.60;99.90
35445;DHT22;21562;49.476;6.086;2024-02-21T04:23:23;9.60;99.90
35445;DHT22;21562;49.476;6.086;2024-02-21T04:25:49;9.70;99.90
35445;DHT22;21562;49.476;6.086;2024-02-21T04:28:15;10.00;99.90
35445;DHT22;21562;49.476;6.086;2024-02-21T04:30:40;10.00;99.90
35445;DHT22;21562;49.476;6.086;2024-02-21T04:33:06;9.60;99.90
35445;DHT22;21562;49.476;6.086;2024-02-21T04:35:32;9.70;99.90
35445;DHT22;21562;49.476;6.086;2024-02-21T04:37:58;9.70;99.90
35445;DHT22;21562;49.476;6.086;2024-02-21T04:40:23;9.60;99.90
35445;DHT22;21562;49.476;6.086;2024-02-21T04:42:49;9.40;99.90
35445;DHT22;21562;49.476;6.086;2024-02-21T04:45:15;9.10;99.90
35445;DHT22;21562;49.476;6.086;2024-02-21T04:47:42;9.20;99.90
35445;DHT22;21562;49.476;6.086;2024-02-21T04:50:08;9.10;99.90
35445;DHT22;21562;49.476;6.086;2024-02-21T04:52:34;9.00;99.90
35445;DHT22;21562;49.476;6.086;2024-02-21T04:54:59;8.90;99.90
35445;DHT22;21562;49.476;6.086;2024-02-21T04:57:25;9.00;99.90
35445;DHT22;21562;49.476;6.086;2024-02-21T04:59:51;8.90;99.90
35445;DHT22;21562;49.476;6.086;2024-02-21T05:02:17;9.00;99.90
35445;DHT22;21562;49.476;6.086;2024-02-21T05:04:44;9.20;99.90
35445;DHT22;21562;49.476;6.086;2024-02-21T05:07:10;9.20;99.90
35445;DHT22;21562;49.476;6.086;2024-02-21T05:09:37;8.90;99.90
35445;DHT22;21562;49.476;6.086;2024-02-21T05:12:03;8.70;99.90
35445;DHT22;21562;49.476;6.086;2024-02-21T05:14:29;8.90;99.90
35445;DHT22;21562;49.476;6.086;2024-02-21T05:16:55;9.00;99.90
35445;DHT22;21562;49.476;6.086;2024-02-21T05:19:21;9.00;99.90
35445;DHT22;21562;49.476;6.086;2024-02-21T05:21:46;9.40;99.90
35445;DHT22;21562;49.476;6.086;2024-02-21T05:24:12;9.40;99.90
35445;DHT22;21562;49.476;6.086;2024-02-21T05:26:38;9.00;99.90
35445;DHT22;21562;49.476;6.086;2024-02-21T05:29:04;9.20;99.90
35445;DHT22;21562;49.476;6.086;2024-02-21T05:31:54;9.30;99.90
35445;DHT22;21562;49.476;6.086;2024-02-21T05:34:22;9.30;99.90
35445;DHT22;21562;49.476;6.086;2024-02-21T05:36:48;9.10;99.90
35445;DHT22;21562;49.476;6.086;2024-02-21T05:39:17;8.60;99.90
35445;DHT22;21562;49.476;6.086;2024-02-21T05:41:43;8.50;99.90
35445;DHT22;21562;49.476;6.086;2024-02-21T05:44:10;8.60;99.90
35445;DHT22;21562;49.476;6.086;2024-02-21T05:46:35;8.60;99.90
35445;DHT22;21562;49.476;6.086;2024-02-21T05:49:01;8.70;99.90
35445;DHT22;21562;49.476;6.086;2024-02-21T05:51:27;8.90;99.90
35445;DHT22;21562;49.476;6.086;2024-02-21T05:53:53;9.10;99.90
35445;DHT22;21562;49.476;6.086;2024-02-21T05:56:18;8.80;99.90
35445;DHT22;21562;49.476;6.086;2024-02-21T05:58:44;8.90;99.90
35445;DHT22;21562;49.476;6.086;2024-02-21T06:01:11;8.90;99.90
35445;DHT22;21562;49.476;6.086;2024-02-21T06:03:37;9.10;99.90
35445;DHT22;21562;49.476;6.086;2024-02-21T06:06:03;8.80;99.90
35445;DHT22;21562;49.476;6.086;2024-02-21T06:08:30;9.00;99.90
35445;DHT22;21562;49.476;6.086;2024-02-21T06:10:56;9.20;99.90
35445;DHT22;21562;49.476;6.086;2024-02-21T06:13:23;9.50;99.90
35445;DHT22;21562;49.476;6.086;2024-02-21T06:15:50;9.70;99.90
35445;DHT22;21562;49.476;6.086;2024-02-21T06:18:17;9.90;99.90
35445;DHT22;21562;49.476;6.086;2024-02-21T06:20:43;10.10;99.90
35445;DHT22;21562;49.476;6.086;2024-02-21T06:23:09;10.10;99.90
35445;DHT22;21562;49.476;6.086;2024-02-21T06:25:35;10.20;99.90
35445;DHT22;21562;49.476;6.086;2024-02-21T06:28:00;9.90;99.90
35445;DHT22;21562;49.476;6.086;2024-02-21T06:30:26;9.40;99.90
35445;DHT22;21562;49.476;6.086;2024-02-21T06:32:52;9.50;99.90
35445;DHT22;21562;49.476;6.086;2024-02-21T06:35:21;9.30;99.90
35445;DHT22;21562;49.476;6.086;2024-02-21T06:37:50;9.60;99.90
35445;DHT22;21562;49.476;6.086;2024-02-21T06:40:17;9.90;99.90
35445;DHT22;21562;49.476;6.086;2024-02-21T06:42:43;10.00;99.90
35445;DHT22;21562;49.476;6.086;2024-02-21T06:45:09;10.20;99.90
35445;DHT22;21562;49.476;6.086;2024-02-21T06:47:35;10.20;99.90
35445;DHT22;21562;49.476;6.086;2024-02-21T06:50:00;10.20;99.90
35445;DHT22;21562;49.476;6.086;2024-02-21T06:52:26;10.30;93.80
35445;DHT22;21562;49.476;6.086;2024-02-21T06:54:52;10.30;97.10
35445;DHT22;21562;49.476;6.086;2024-02-21T06:57:18;10.40;88.80
35445;DHT22;21562;49.476;6.086;2024-02-21T06:59:43;10.40;83.20
35445;DHT22;21562;49.476;6.086;2024-02-21T07:02:09;10.40;80.90
35445;DHT22;21562;49.476;6.086;2024-02-21T07:04:35;10.50;70.50
35445;DHT22;21562;49.476;6.086;2024-02-21T07:07:01;10.40;75.50
35445;DHT22;21562;49.476;6.086;2024-02-21T07:09:27;10.50;58.20
35445;DHT22;21562;49.476;6.086;2024-02-21T07:11:54;10.50;54.20
35445;DHT22;21562;49.476;6.086;2024-02-21T07:14:20;10.50;57.20
35445;DHT22;21562;49.476;6.086;2024-02-21T07:16:45;10.50;59.60
35445;DHT22;21562;49.476;6.086;2024-02-21T07:19:11;10.60;59.60
35445;DHT22;21562;49.476;6.086;2024-02-21T07:21:37;10.40;71.60
35445;DHT22;21562;49.476;6.086;2024-02-21T07:24:08;10.40;68.50
35445;DHT22;21562;49.476;6.086;2024-02-21T07:26:34;10.50;54.40
35445;DHT22;21562;49.476;6.086;2024-02-21T07:28:59;10.60;55.30
35445;DHT22;21562;49.476;6.086;2024-02-21T07:31:25;10.40;84.80
35445;DHT22;21562;49.476;6.086;2024-02-21T07:33:51;10.40;79.70
35445;DHT22;21562;49.476;6.086;2024-02-21T07:36:29;10.50;68.00
35445;DHT22;21562;49.476;6.086;2024-02-21T07:38:55;10.30;83.90
35445;DHT22;21562;49.476;6.086;2024-02-21T07:41:21;10.40;70.40
35445;DHT22;21562;49.476;6.086;2024-02-21T07:43:47;10.10;91.90
35445;DHT22;21562;49.476;6.086;2024-02-21T07:46:14;10.10;99.90
35445;DHT22;21562;49.476;6.086;2024-02-21T07:48:40;10.20;99.90
35445;DHT22;21562;49.476;6.086;2024-02-21T07:51:06;10.30;86.50
35445;DHT22;21562;49.476;6.086;2024-02-21T07:53:31;10.40;84.10
35445;DHT22;21562;49.476;6.086;2024-02-21T07:55:57;10.50;71.90
35445;DHT22;21562;49.476;6.086;2024-02-21T07:58:23;10.70;46.10
35445;DHT22;21562;49.476;6.086;2024-02-21T08:00:49;10.70;48.80
35445;DHT22;21562;49.476;6.086;2024-02-21T08:03:14;10.60;45.70
35445;DHT22;21562;49.476;6.086;2024-02-21T08:05:43;10.70;48.90
35445;DHT22;21562;49.476;6.086;2024-02-21T08:08:09;10.70;48.10
35445;DHT22;21562;49.476;6.086;2024-02-21T08:10:35;10.70;53.00
35445;DHT22;21562;49.476;6.086;2024-02-21T08:13:01;10.40;69.70
35445;DHT22;21562;49.476;6.086;2024-02-21T08:15:26;10.20;85.50
35445;DHT22;21562;49.476;6.086;2024-02-21T08:17:55;10.00;99.90
35445;DHT22;21562;49.476;6.086;2024-02-21T08:20:25;10.20;99.90
35445;DHT22;21562;49.476;6.086;2024-02-21T08:22:50;10.00;99.90
35445;DHT22;21562;49.476;6.086;2024-02-21T08:25:16;9.70;99.90
35445;DHT22;21562;49.476;6.086;2024-02-21T08:27:42;9.80;99.90
35445;DHT22;21562;49.476;6.086;2024-02-21T08:30:08;9.90;99.90
35445;DHT22;21562;49.476;6.086;2024-02-21T08:32:34;10.00;99.90
35445;DHT22;21562;49.476;6.086;2024-02-21T08:35:01;9.90;99.90
35445;DHT22;21562;49.476;6.086;2024-02-21T08:37:27;9.80;99.90
35445;DHT22;21562;49.476;6.086;2024-02-21T08:39:53;9.50;99.90
35445;DHT22;21562;49.476;6.086;2024-02-21T08:42:19;9.50;99.90
35445;DHT22;21562;49.476;6.086;2024-02-21T08:44:44;9.70;99.90
35445;DHT22;21562;49.476;6.086;2024-02-21T08:47:11;9.80;99.90
35445;DHT22;21562;49.476;6.086;2024-02-21T08:49:37;10.00;99.90
35445;DHT22;21562;49.476;6.086;2024-02-21T08:52:03;10.20;99.90
35445;DHT22;21562;49.476;6.086;2024-02-21T08:54:29;10.30;99.90
35445;DHT22;21562;49.476;6.086;2024-02-21T08:56:56;10.20;99.90
35445;DHT22;21562;49.476;6.086;2024-02-21T08:59:22;10.30;99.90
35445;DHT22;21562;49.476;6.086;2024-02-21T09:01:48;10.20;99.90
35445;DHT22;21562;49.476;6.086;2024-02-21T09:04:13;10.10;99.90
35445;DHT22;21562;49.476;6.086;2024-02-21T09:06:39;10.00;99.90
35445;DHT22;21562;49.476;6.086;2024-02-21T09:09:11;10.20;99.90
35445;DHT22;21562;49.476;6.086;2024-02-21T09:11:36;10.40;99.90
35445;DHT22;21562;49.476;6.086;2024-02-21T09:14:02;10.60;99.90
35445;DHT22;21562;49.476;6.086;2024-02-21T09:16:31;10.80;96.40
35445;DHT22;21562;49.476;6.086;2024-02-21T09:18:57;10.70;84.50
35445;DHT22;21562;49.476;6.086;2024-02-21T09:21:23;10.80;74.20
35445;DHT22;21562;49.476;6.086;2024-02-21T09:23:48;10.70;67.60
35445;DHT22;21562;49.476;6.086;2024-02-21T09:26:14;10.70;89.30
35445;DHT22;21562;49.476;6.086;2024-02-21T09:28:42;10.80;79.20
35445;DHT22;21562;49.476;6.086;2024-02-21T09:31:08;10.90;51.30
35445;DHT22;21562;49.476;6.086;2024-02-21T09:33:34;10.80;51.80
35445;DHT22;21562;49.476;6.086;2024-02-21T09:36:00;10.80;49.00
35445;DHT22;21562;49.476;6.086;2024-02-21T09:38:26;11.00;59.10
35445;DHT22;21562;49.476;6.086;2024-02-21T09:41:30;11.00;39.80
35445;DHT22;21562;49.476;6.086;2024-02-21T09:43:57;10.70;64.30
35445;DHT22;21562;49.476;6.086;2024-02-21T09:47:33;10.70;83.90
35445;DHT22;21562;49.476;6.086;2024-02-21T09:49:32;10.80;78.10
35445;DHT22;21562;49.476;6.086;2024-02-21T09:52:00;11.00;64.00
35445;DHT22;21562;49.476;6.086;2024-02-21T09:54:28;10.80;57.80
35445;DHT22;21562;49.476;6.086;2024-02-21T09:56:55;10.60;84.90
35445;DHT22;21562;49.476;6.086;2024-02-21T09:59:21;10.20;99.90
35445;DHT22;21562;49.476;6.086;2024-02-21T10:01:47;9.90;99.90
35445;DHT22;21562;49.476;6.086;2024-02-21T10:04:13;9.30;99.90
35445;DHT22;21562;49.476;6.086;2024-02-21T10:06:39;9.20;99.90
35445;DHT22;21562;49.476;6.086;2024-02-21T10:09:08;9.30;99.90
35445;DHT22;21562;49.476;6.086;2024-02-21T10:11:34;9.20;99.90
35445;DHT22;21562;49.476;6.086;2024-02-21T10:14:05;9.10;99.90
35445;DHT22;21562;49.476;6.086;2024-02-21T10:16:31;9.20;99.90
35445;DHT22;21562;49.476;6.086;2024-02-21T10:18:57;9.60;99.90
35445;DHT22;21562;49.476;6.086;2024-02-21T10:21:23;10.00;99.90
35445;DHT22;21562;49.476;6.086;2024-02-21T10:23:49;10.20;99.90
35445;DHT22;21562;49.476;6.086;2024-02-21T10:26:16;10.20;92.90
35445;DHT22;21562;49.476;6.086;2024-02-21T10:28:42;10.20;99.90
35445;DHT22;21562;49.476;6.086;2024-02-21T10:31:11;10.00;93.20
35445;DHT22;21562;49.476;6.086;2024-02-21T10:33:38;10.20;99.90
35445;DHT22;21562;49.476;6.086;2024-02-21T10:36:10;9.80;99.90
35445;DHT22;21562;49.476;6.086;2024-02-21T10:38:39;9.90;99.90
35445;DHT22;21562;49.476;6.086;2024-02-21T10:41:06;9.80;99.90
35445;DHT22;21562;49.476;6.086;2024-02-21T10:43:40;10.00;99.90
35445;DHT22;21562;49.476;6.086;2024-02-21T10:46:09;9.80;99.90
35445;DHT22;21562;49.476;6.086;2024-02-21T10:48:44;9.80;99.90
35445;DHT22;21562;49.476;6.086;2024-02-21T10:51:17;9.80;99.90
35445;DHT22;21562;49.476;6.086;2024-02-21T10:56:39;9.60;99.90
35445;DHT22;21562;49.476;6.086;2024-02-21T10:59:07;9.80;99.90
35445;DHT22;21562;49.476;6.086;2024-02-21T11:01:33;9.90;99.90
35445;DHT22;21562;49.476;6.086;2024-02-21T11:04:08;10.20;99.90
35445;DHT22;21562;49.476;6.086;2024-02-21T11:06:37;10.40;78.80
35445;DHT22;21562;49.476;6.086;2024-02-21T11:09:07;10.50;62.00
35445;DHT22;21562;49.476;6.086;2024-02-21T11:11:38;10.40;90.10
35445;DHT22;21562;49.476;6.086;2024-02-21T11:14:08;10.60;59.70
35445;DHT22;21562;49.476;6.086;2024-02-21T11:16:38;10.50;54.50
35445;DHT22;21562;49.476;6.086;2024-02-21T11:19:09;10.60;78.20
35445;DHT22;21562;49.476;6.086;2024-02-21T11:21:38;10.40;67.10
35445;DHT22;21562;49.476;6.086;2024-02-21T11:24:04;10.30;99.90
35445;DHT22;21562;49.476;6.086;2024-02-21T11:26:30;10.60;92.60
35445;DHT22;21562;49.476;6.086;2024-02-21T11:28:58;10.80;54.40
35445;DHT22;21562;49.476;6.086;2024-02-21T11:31:25;10.90;34.30
35445;DHT22;21562;49.476;6.086;2024-02-21T11:33:53;10.90;27.60
35445;DHT22;21562;49.476;6.086;2024-02-21T11:36:26;11.00;17.70
35445;DHT22;21562;49.476;6.086;2024-02-21T11:38:52;10.70;42.50
35445;DHT22;21562;49.476;6.086;2024-02-21T11:41:21;10.00;95.00
35445;DHT22;21562;49.476;6.086;2024-02-21T11:43:49;10.00;99.90
35445;DHT22;21562;49.476;6.086;2024-02-21T11:46:16;9.80;99.90
35445;DHT22;21562;49.476;6.086;2024-02-21T11:48:42;10.10;99.90
35445;DHT22;21562;49.476;6.086;2024-02-21T11:51:21;10.30;82.40
35445;DHT22;21562;49.476;6.086;2024-02-21T11:53:48;10.60;58.10
35445;DHT22;21562;49.476;6.086;2024-02-21T11:56:14;10.70;37.30
35445;DHT22;21562;49.476;6.086;2024-02-21T11:58:40;10.80;47.60
35445;DHT22;21562;49.476;6.086;2024-02-21T12:01:05;10.80;39.30
35445;DHT22;21562;49.476;6.086;2024-02-21T12:03:32;10.90;31.40
35445;DHT22;21562;49.476;6.086;2024-02-21T12:06:01;11.00;22.00
35445;DHT22;21562;49.476;6.086;2024-02-21T12:08:41;10.50;35.20
35445;DHT22;21562;49.476;6.086;2024-02-21T12:11:22;10.10;78.10
35445;DHT22;21562;49.476;6.086;2024-02-21T12:14:08;9.90;99.90
35445;DHT22;21562;49.476;6.086;2024-02-21T12:16:34;9.80;99.90
35445;DHT22;21562;49.476;6.086;2024-02-21T12:19:02;9.90;99.90
35445;DHT22;21562;49.476;6.086;2024-02-21T12:21:33;10.20;99.90
35445;DHT22;21562;49.476;6.086;2024-02-21T12:24:14;10.60;60.70
35445;DHT22;21562;49.476;6.086;2024-02-21T12:26:41;10.60;36.00
35445;DHT22;21562;49.476;6.086;2024-02-21T12:29:07;10.50;70.00
35445;DHT22;21562;49.476;6.086;2024-02-21T12:31:36;10.60;85.50
35445;DHT22;21562;49.476;6.086;2024-02-21T12:34:02;10.40;41.70
35445;DHT22;21562;49.476;6.086;2024-02-21T12:36:32;10.80;46.10
35445;DHT22;21562;49.476;6.086;2024-02-21T12:38:58;10.70;37.20
35445;DHT22;21562;49.476;6.086;2024-02-21T12:41:26;10.60;38.70
35445;DHT22;21562;49.476;6.086;2024-02-21T12:43:53;10.50;48.10
35445;DHT22;21562;49.476;6.086;2024-02-21T12:46:19;10.60;47.40
35445;DHT22;21562;49.476;6.086;2024-02-21T12:48:44;10.80;46.10
35445;DHT22;21562;49.476;6.086;2024-02-21T12:51:10;10.60;31.70
35445;DHT22;21562;49.476;6.086;2024-02-21T12:53:36;10.40;46.60
35445;DHT22;21562;49.476;6.086;2024-02-21T12:56:01;10.60;45.20
35445;DHT22;21562;49.476;6.086;2024-02-21T12:58:28;10.70;28.20
35445;DHT22;21562;49.476;6.086;2024-02-21T13:00:57;10.90;36.90
35445;DHT22;21562;49.476;6.086;2024-02-21T13:03:22;11.20;14.20
35445;DHT22;21562;49.476;6.086;2024-02-21T13:05:48;11.60;1.00
35445;DHT22;21562;49.476;6.086;2024-02-21T13:08:14;11.70;1.00
35445;DHT22;21562;49.476;6.086;2024-02-21T13:10:39;11.90;1.00
35445;DHT22;21562;49.476;6.086;2024-02-21T13:13:05;12.20;1.00
35445;DHT22;21562;49.476;6.086;2024-02-21T13:15:31;12.30;1.00
35445;DHT22;21562;49.476;6.086;2024-02-21T13:17:57;12.40;1.00
35445;DHT22;21562;49.476;6.086;2024-02-21T13:20:25;12.60;1.00
35445;DHT22;21562;49.476;6.086;2024-02-21T13:22:50;12.30;1.00
35445;DHT22;21562;49.476;6.086;2024-02-21T13:25:16;12.40;1.00
35445;DHT22;21562;49.476;6.086;2024-02-21T13:27:45;12.10;1.00
35445;DHT22;21562;49.476;6.086;2024-02-21T13:30:11;12.10;1.00
35445;DHT22;21562;49.476;6.086;2024-02-21T13:32:38;12.20;1.00
35445;DHT22;21562;49.476;6.086;2024-02-21T13:35:04;12.40;1.00
35445;DHT22;21562;49.476;6.086;2024-02-21T13:37:31;12.30;1.00
35445;DHT22;21562;49.476;6.086;2024-02-21T13:39:57;12.30;1.00
35445;DHT22;21562;49.476;6.086;2024-02-21T13:42:23;12.40;1.00
35445;DHT22;21562;49.476;6.086;2024-02-21T13:44:52;12.30;1.00
35445;DHT22;21562;49.476;6.086;2024-02-21T13:47:18;12.00;1.00
35445;DHT22;21562;49.476;6.086;2024-02-21T13:49:44;12.00;1.00
35445;DHT22;21562;49.476;6.086;2024-02-21T13:52:09;11.80;1.00
35445;DHT22;21562;49.476;6.086;2024-02-21T13:54:35;11.60;1.00
35445;DHT22;21562;49.476;6.086;2024-02-21T13:57:01;11.70;1.00
35445;DHT22;21562;49.476;6.086;2024-02-21T13:59:28;11.80;1.00
35445;DHT22;21562;49.476;6.086;2024-02-21T14:01:53;12.10;1.00
35445;DHT22;21562;49.476;6.086;2024-02-21T14:04:19;12.20;1.00
35445;DHT22;21562;49.476;6.086;2024-02-21T14:06:45;12.10;1.00
35445;DHT22;21562;49.476;6.086;2024-02-21T14:09:12;11.90;1.00
35445;DHT22;21562;49.476;6.086;2024-02-21T14:11:38;12.10;1.00
35445;DHT22;21562;49.476;6.086;2024-02-21T14:14:05;11.80;1.00
35445;DHT22;21562;49.476;6.086;2024-02-21T14:16:32;11.40;1.00
35445;DHT22;21562;49.476;6.086;2024-02-21T14:18:58;11.20;1.00
35445;DHT22;21562;49.476;6.086;2024-02-21T14:21:24;10.80;1.00
35445;DHT22;21562;49.476;6.086;2024-02-21T14:23:50;11.00;1.00
35445;DHT22;21562;49.476;6.086;2024-02-21T14:26:16;11.20;1.00
35445;DHT22;21562;49.476;6.086;2024-02-21T14:28:41;11.50;1.00
35445;DHT22;21562;49.476;6.086;2024-02-21T14:31:07;11.90;1.00
35445;DHT22;21562;49.476;6.086;2024-02-21T14:33:35;12.00;1.00
35445;DHT22;21562;49.476;6.086;2024-02-21T14:36:01;12.10;1.00
35445;DHT22;21562;49.476;6.086;2024-02-21T14:38:28;12.20;1.00
35445;DHT22;21562;49.476;6.086;2024-02-21T14:40:53;12.40;1.00
35445;DHT22;21562;49.476;6.086;2024-02-21T14:43:19;12.10;1.00
35445;DHT22;21562;49.476;6.086;2024-02-21T14:45:47;11.70;1.00
35445;DHT22;21562;49.476;6.086;2024-02-21T14:48:13;11.60;1.00
35445;DHT22;21562;49.476;6.086;2024-02-21T14:50:39;11.70;1.00
35445;DHT22;21562;49.476;6.086;2024-02-21T14:53:04;11.70;1.00
35445;DHT22;21562;49.476;6.086;2024-02-21T14:55:30;11.40;1.00
35445;DHT22;21562;49.476;6.086;2024-02-21T14:57:56;11.50;1.00
35445;DHT22;21562;49.476;6.086;2024-02-21T15:00:21;11.80;1.00
35445;DHT22;21562;49.476;6.086;2024-02-21T15:02:57;12.00;1.00
35445;DHT22;21562;49.476;6.086;2024-02-21T15:05:24;12.20;1.00
35445;DHT22;21562;49.476;6.086;2024-02-21T15:07:55;12.20;1.00
35445;DHT22;21562;49.476;6.086;2024-02-21T15:10:21;12.10;1.00
35445;DHT22;21562;49.476;6.086;2024-02-21T15:12:46;12.20;1.00
35445;DHT22;21562;49.476;6.086;2024-02-21T15:15:13;12.10;1.00
35445;DHT22;21562;49.476;6.086;2024-02-21T15:17:39;12.20;1.00
35445;DHT22;21562;49.476;6.086;2024-02-21T15:20:05;12.30;1.00
35445;DHT22;21562;49.476;6.086;2024-02-21T15:22:35;12.40;1.00
35445;DHT22;21562;49.476;6.086;2024-02-21T15:25:02;12.50;1.00
35445;DHT22;21562;49.476;6.086;2024-02-21T15:27:30;12.40;1.00
35445;DHT22;21562;49.476;6.086;2024-02-21T15:29:56;12.40;1.00
35445;DHT22;21562;49.476;6.086;2024-02-21T15:32:23;12.40;1.00
35445;DHT22;21562;49.476;6.086;2024-02-21T15:34:49;12.50;1.00
35445;DHT22;21562;49.476;6.086;2024-02-21T15:37:15;12.50;1.00